<?xml version="1.0" encoding="utf-8"?>
<gpx xmlns:xsi="http://www.w3.org/2001/XMLSchema-instance" xmlns:xsd="http://www.w3.org/2001/XMLSchema" version="1.1" creator="Shapelink.com" xmlns="http://www.topografix.com/GPX/1/1" xmlns:gpxtpx="http://www.garmin.com/xmlschemas/TrackPointExtension/v1">
  <metadata>
    <name>Övrigt 1.62 km, 2020-07-20</name>
    <desc></desc>
    <author><name>Marian Moron</name></author> 
    <time>2020-07-20T20:11:28Z</time>
  </metadata>
  <trk>
    <name>Övrigt 1.62 km, 2020-07-20</name>
    <trkseg>
      <trkpt lat="51.229837524" lon="4.458088612891">
        <ele>0</ele>
        <time>2020-07-20T20:11:28Z</time>
      </trkpt>
      <trkpt lat="51.22986686065" lon="4.457741099317">
        <ele>2</ele>
        <time>2020-07-20T20:11:52Z</time>
      </trkpt>
      <trkpt lat="51.229788489885" lon="4.457400794177">
        <ele>2.6</ele>
        <time>2020-07-20T20:13:00Z</time>
      </trkpt>
      <trkpt lat="51.229771977542" lon="4.457284956319">
        <ele>3.4</ele>
        <time>2020-07-20T20:13:12Z</time>
      </trkpt>
      <trkpt lat="51.229762254538" lon="4.457052777689">
        <ele>3.2</ele>
        <time>2020-07-20T20:13:37Z</time>
      </trkpt>
      <trkpt lat="51.229666114145" lon="4.456577607778">
        <ele>7.2</ele>
        <time>2020-07-20T20:14:48Z</time>
      </trkpt>
      <trkpt lat="51.229735432458" lon="4.456585905859">
        <ele>7</ele>
        <time>2020-07-20T20:14:52Z</time>
      </trkpt>
      <trkpt lat="51.23000097105" lon="4.456525807636">
        <ele>7.8</ele>
        <time>2020-07-20T20:15:23Z</time>
      </trkpt>
      <trkpt lat="51.230454767116" lon="4.45647266639">
        <ele>10</ele>
        <time>2020-07-20T20:16:02Z</time>
      </trkpt>
      <trkpt lat="51.230873359202" lon="4.456224645969">
        <ele>6.8</ele>
        <time>2020-07-20T20:16:33Z</time>
      </trkpt>
      <trkpt lat="51.230981737169" lon="4.456082991859">
        <ele>0</ele>
        <time>2020-07-20T20:16:59Z</time>
      </trkpt>
      <trkpt lat="51.231002272824" lon="4.456031526993">
        <ele>0</ele>
        <time>2020-07-20T20:17:02Z</time>
      </trkpt>
      <trkpt lat="51.231052983319" lon="4.455808316996">
        <ele>0</ele>
        <time>2020-07-20T20:17:34Z</time>
      </trkpt>
      <trkpt lat="51.23088693788" lon="4.455788368074">
        <ele>7.8</ele>
        <time>2020-07-20T20:17:51Z</time>
      </trkpt>
      <trkpt lat="51.230486115422" lon="4.455466251657">
        <ele>15.6</ele>
        <time>2020-07-20T20:18:32Z</time>
      </trkpt>
      <trkpt lat="51.230355609239" lon="4.455382767933">
        <ele>16</ele>
        <time>2020-07-20T20:18:51Z</time>
      </trkpt>
      <trkpt lat="51.230150839422" lon="4.455029051753">
        <ele>0</ele>
        <time>2020-07-20T20:19:24Z</time>
      </trkpt>
      <trkpt lat="51.230137176925" lon="4.455059561869">
        <ele>0</ele>
        <time>2020-07-20T20:20:08Z</time>
      </trkpt>
      <trkpt lat="51.230087472258" lon="4.455047240476">
        <ele>0</ele>
        <time>2020-07-20T20:20:11Z</time>
      </trkpt>
      <trkpt lat="51.229654882399" lon="4.455005498614">
        <ele>2.6</ele>
        <time>2020-07-20T20:20:42Z</time>
      </trkpt>
      <trkpt lat="51.229209971147" lon="4.454913968266">
        <ele>0.6</ele>
        <time>2020-07-20T20:21:23Z</time>
      </trkpt>
      <trkpt lat="51.228763718791" lon="4.454717915625">
        <ele>0</ele>
        <time>2020-07-20T20:21:59Z</time>
      </trkpt>
      <trkpt lat="51.22868417456" lon="4.454699223988">
        <ele>0</ele>
        <time>2020-07-20T20:22:09Z</time>
      </trkpt>
      <trkpt lat="51.228437159967" lon="4.454784719368">
        <ele>0</ele>
        <time>2020-07-20T20:22:39Z</time>
      </trkpt>
      <trkpt lat="51.228119737414" lon="4.4548541215">
        <ele>0</ele>
        <time>2020-07-20T20:23:19Z</time>
      </trkpt>
      <trkpt lat="51.228011862361" lon="4.454792430716">
        <ele>0</ele>
        <time>2020-07-20T20:24:27Z</time>
      </trkpt>
      <trkpt lat="51.227834333719" lon="4.454865939979">
        <ele>0</ele>
        <time>2020-07-20T20:24:47Z</time>
      </trkpt>
      <trkpt lat="51.227666863357" lon="4.455152768597">
        <ele>0</ele>
        <time>2020-07-20T20:25:56Z</time>
      </trkpt>
      <trkpt lat="51.227790077287" lon="4.455342953908">
        <ele>0</ele>
        <time>2020-07-20T20:26:42Z</time>
      </trkpt>
      <trkpt lat="51.22782251524" lon="4.455433729885">
        <ele>0</ele>
        <time>2020-07-20T20:26:49Z</time>
      </trkpt>
      <trkpt lat="51.228090400764" lon="4.456013673546">
        <ele>0</ele>
        <time>2020-07-20T20:27:36Z</time>
      </trkpt>
      <trkpt lat="51.228155192851" lon="4.456385997544">
        <ele>0</ele>
        <time>2020-07-20T20:28:13Z</time>
      </trkpt>
      <trkpt lat="51.228423916565" lon="4.456960660608">
        <ele>0</ele>
        <time>2020-07-20T20:29:00Z</time>
      </trkpt>
      <trkpt lat="51.228425760583" lon="4.457050011662">
        <ele>0</ele>
        <time>2020-07-20T20:29:05Z</time>
      </trkpt>
      <trkpt lat="51.228486780815" lon="4.457320663213">
        <ele>0</ele>
        <time>2020-07-20T20:29:21Z</time>
      </trkpt>
      <trkpt lat="51.228527768306" lon="4.457527863781">
        <ele>0</ele>
        <time>2020-07-20T20:29:33Z</time>
      </trkpt>
      <trkpt lat="51.228531791618" lon="4.457649820426">
        <ele>0</ele>
        <time>2020-07-20T20:29:45Z</time>
      </trkpt>
      <trkpt lat="51.2285886209" lon="4.458213754658">
        <ele>1.8</ele>
        <time>2020-07-20T20:30:46Z</time>
      </trkpt>
      <trkpt lat="51.228589794366" lon="4.458255915615">
        <ele>1.2</ele>
        <time>2020-07-20T20:30:48Z</time>
      </trkpt>
      <trkpt lat="51.228621645586" lon="4.458671657855">
        <ele>0</ele>
        <time>2020-07-20T20:31:14Z</time>
      </trkpt>
      <trkpt lat="51.228758186737" lon="4.459163340109">
        <ele>0</ele>
        <time>2020-07-20T20:31:42Z</time>
      </trkpt>
      <trkpt lat="51.228814010191" lon="4.45914481611">
        <ele>0</ele>
        <time>2020-07-20T20:31:50Z</time>
      </trkpt>
      <trkpt lat="51.229065131915" lon="4.459047418432">
        <ele>0</ele>
        <time>2020-07-20T20:32:23Z</time>
      </trkpt>
      <trkpt lat="51.229362018813" lon="4.458970807866">
        <ele>0</ele>
        <time>2020-07-20T20:32:52Z</time>
      </trkpt>
      <trkpt lat="51.229698971193" lon="4.4588858154">
        <ele>0</ele>
        <time>2020-07-20T20:33:33Z</time>
      </trkpt>
      <trkpt lat="51.22996241431" lon="4.458876176215">
        <ele>0</ele>
        <time>2020-07-20T20:34:09Z</time>
      </trkpt>
      <trkpt lat="51.229989739304" lon="4.45888832997">
        <ele>0</ele>
        <time>2020-07-20T20:34:11Z</time>
      </trkpt>
      <trkpt lat="51.230370026107" lon="4.459004503104">
        <ele>0</ele>
        <time>2020-07-20T20:35:17Z</time>
      </trkpt>
      <trkpt lat="51.230414366358" lon="4.459073486141">
        <ele>4</ele>
        <time>2020-07-20T20:35:24Z</time>
      </trkpt>
      <trkpt lat="51.230456443496" lon="4.459153281829">
        <ele>9.4</ele>
        <time>2020-07-20T20:35:32Z</time>
      </trkpt>
      <trkpt lat="51.230518804832" lon="4.459509177303">
        <ele>7.6</ele>
        <time>2020-07-20T20:35:56Z</time>
      </trkpt>
      <trkpt lat="51.230571946078" lon="4.459776979008">
        <ele>0.8</ele>
        <time>2020-07-20T20:37:11Z</time>
      </trkpt>
      <trkpt lat="51.230585776213" lon="4.459589392086">
        <ele>0</ele>
        <time>2020-07-20T20:37:25Z</time>
      </trkpt>
      <trkpt lat="51.230460047713" lon="4.459149929069">
        <ele>1.6</ele>
        <time>2020-07-20T20:38:41Z</time>
      </trkpt>
      <trkpt lat="51.230414031082" lon="4.458933927506">
        <ele>0</ele>
        <time>2020-07-20T20:38:57Z</time>
      </trkpt>
      <trkpt lat="51.230283105804" lon="4.458961336319">
        <ele>0</ele>
        <time>2020-07-20T20:39:14Z</time>
      </trkpt>
      <trkpt lat="51.230097865814" lon="4.458975250273">
        <ele>0</ele>
        <time>2020-07-20T20:39:37Z</time>
      </trkpt>
      <trkpt lat="51.229955792609" lon="4.45882881848">
        <ele>0</ele>
        <time>2020-07-20T20:39:50Z</time>
      </trkpt>
      <trkpt lat="51.229941794836" lon="4.45842313452">
        <ele>0</ele>
        <time>2020-07-20T20:40:10Z</time>
      </trkpt>
      <trkpt lat="51.229927126511" lon="4.458191626442">
        <ele>0</ele>
        <time>2020-07-20T20:40:21Z</time>
      </trkpt>
      <trkpt lat="51.229878511491" lon="4.457958525803">
        <ele>0</ele>
        <time>2020-07-20T20:40:32Z</time>
      </trkpt>
      <trkpt lat="51.229838865104" lon="4.457963135848">
        <ele>0</ele>
        <time>2020-07-20T20:40:34Z</time>
      </trkpt>
      <trkpt lat="51.229728894576" lon="4.458075788584">
        <ele>0</ele>
        <time>2020-07-20T20:41:16Z</time>
      </trkpt>
    </trkseg>
  </trk>
</gpx>